Terminal Aerodrome Forecast
Issued by NWS Wakefield, VA

Home | Current Version | Previous Version | Text Only | Print | Product List | Glossary On
Versions: 1 2 3 4 5 6 7 8 9 10 11 12 13 14 15
000
FTUS41 KAKQ 202300
TAFECG
TAF
KECG 202340Z 2100/2124 04010KT P6SM SCT025
      TEMPO 2100/2103 -RA OVC025
     FM210500 04004KT P6SM OVC015
     FM210800 02005KT 5SM BR OVC008
     FM211400 35007KT P6SM OVC015
     FM211700 33010KT P6SM BKN250=

USA.gov is the U.S. government's official web portal to all federal, state and local government web resources and services.